Terminal Aerodrome Forecast
Issued by NWS Northern Indiana

Home | Current Version | Previous Version | Graphics & Text | Print | Product List | Glossary On
Versions: 1 2 3 4 5 6 7 8 9 10 11 12 13 14 15 16 17
160
FTUS43 KIWX 171120
TAFFWA
TAF
KFWA 171120Z 1712/1812 27016G25KT P6SM SCT030 BKN050
      TEMPO 1712/1716 P6SM -SHSN OVC030
     FM172200 30012KT P6SM SCT050
     FM180300 VRB04KT P6SM FEW250=

USA.gov is the U.S. government's official web portal to all federal, state and local government web resources and services.